Valentine, AZ (86437)

4:41 PM MST on August 29, 2015 (GMT -0700)
Cedar Hills | | Change Station
CLOSE
Current Station
Personal Weather Station
Location: Kingman, AZ
Elevation: 3980 ft
Nearby Weather Stations

Elev 3980 ft 35.20 °N, 113.73 °W | Updated 2 seconds ago

Partly Cloudy
Partly Cloudy
96.6 °F
Feels Like 96 °F
N
0.0
Wind Variable Wind from SSW
Gusts 4.0 mph

Today
High -- | Low -- °F
--% Chance of Precip.
Yesterday
High -- | Low -- °F
Precip. -- in
6:04 AM 7:05 PM
Full, 100% visible
Pressure 29.97 in
Visibility 10.0 miles
Clouds Mostly Cloudy 10000 ft
Heat Index 96 °F
Dew Point 57 °F
Humidity 27%
Rainfall 0.00 in
Snow Depth Not available.
UV 0.9 out of 12
Pollen 6.60 out of 12
Air Quality Not available.
Flu Activity Not available.
SPECI KIGM 292302Z AUTO 20006KT 10SM BKN100 37/09 A2997 RMK AO2 LTG DSNT NE AND E T03720089
Pressure 29.97 in
Visibility 10.0 miles
Clouds Mostly Cloudy 10000 ft
Heat Index 96 °F
Dew Point 57 °F
Humidity 27%
Rainfall 0.00 in
Snow Depth Not available.
UV 0.9 out of 12
Pollen 6.60 out of 12
Air Quality Not available.
Flu Activity Not available.
SPECI KIGM 292302Z AUTO 20006KT 10SM BKN100 37/09 A2997 RMK AO2 LTG DSNT NE AND E T03720089

10-Day Weather Forecast

×

Almanac

Astronomy

Aug. 29, 2015 Rise Set
Actual Time
Civil Twilight
Nautical Twilight
Astronomical Twilight
Moon
Length of Visible Light
Length of Day
Tomorrow will be .
, % of the Moon is Illuminated

Today's Extremes

State Highs State Lows

Community

WunderPhotos

Upload Photos

1,850,784 photos uploaded!

WunderBlogs® & News

Nearby

Air Quality

  Air Quality AQ Index Pollutant
Not available.

Snow Depth

Station Depth Elevation

Earthquake Activity

City Distance Mag. Time & Date
Minimum magnitude displayed is 2.5.

Coastal Water Temperatures

Place Temperature

Stations

Nearby Weather Stations

Station Location Temp. Windchill Dew Point Humidity Wind Precip. Elev Updated Type